This is the latest recevied weather packets stored in our database for station/object N4DRV. If no packets are shown the sender has not sent any weather packets the latest 10 day(s).
| Time | Temp. | Humidity | Pressure | Rain* | Wind** | Luminosity | Snow |
|---|---|---|---|---|---|---|---|
| 1778093708 | 25° C | 73% | 1015.2 hPa | 0 mm | - | - | - |
| 1778091907 | 25° C | 73% | 1015.4 hPa | 0 mm | - | - | - |
| 1778082303 | 21.11° C | 82% | 1016.6 hPa | 0 mm | - | - | - |
| 1778079299 | 20.56° C | 81% | 1016.9 hPa | 0 mm | - | - | - |
| 1778073909 | 20.56° C | 82% | 1015.9 hPa | 0 mm | - | - | - |
| 1778073310 | 20° C | 82% | 1015.8 hPa | 0 mm | - | - | - |
| 1778069142 | 19.44° C | 84% | 1015.5 hPa | 0 mm | - | - | - |
| 1778062505 | 19.44° C | 81% | 1014.6 hPa | 0 mm | - | - | - |
| 1778061944 | 19.44° C | 81% | 1014.4 hPa | 0 mm | - | - | - |
| 1778056533 | 20° C | 75% | 1013.9 hPa | 0 mm | - | - | - |
| 1778054144 | 20.56° C | 74% | 1013.8 hPa | 0 mm | - | - | - |
| 1778052921 | 20.56° C | 73% | 1014 hPa | 0 mm | - | - | - |
| 1778049314 | 21.11° C | 69% | 1014.5 hPa | 0 mm | - | - | - |
| 1778046329 | 20.56° C | 65% | 1014.7 hPa | 0 mm | - | - | - |
| 1778043948 | 20.56° C | 63% | 1014.7 hPa | 0 mm | - | - | - |
| 1778039132 | 20° C | 62% | 1014.7 hPa | 0 mm | - | - | - |
| 1778037912 | 20° C | 59% | 1014.9 hPa | 0 mm | - | - | - |
| 1778036750 | 20.56° C | 59% | 1014.9 hPa | 0 mm | - | - | - |
| 1778030735 | 21.11° C | 57% | 1014.6 hPa | 0 mm | - | - | - |
| 1778029557 | 21.11° C | 55% | 1014.3 hPa | 0 mm | - | - | - |
| 1778028951 | 21.67° C | 56% | 1014.4 hPa | 0 mm | - | - | - |
| 1778028327 | 21.67° C | 55% | 1014.4 hPa | 0 mm | - | - | - |
| 1778025965 | 22.78° C | 53% | 1014.4 hPa | 0 mm | - | - | - |
| 1778020533 | 24.44° C | 48% | 1014.4 hPa | 0 mm | - | - | - |
| 1778016324 | 26.11° C | 43% | 1014.3 hPa | 0 mm | - | - | - |
* Rain latest hour (hover to see other rain measurements)
** Current wind speed in m/s (hover to see current wind gust speed)